sensor_id;sensor_type;location;lat;lon;timestamp;temperature;humidity
57719;DHT22;43561;50.090;18.522;2023-02-23T00:00:32;1.90;99.90
57719;DHT22;43561;50.090;18.522;2023-02-23T00:10:33;1.90;99.90
57719;DHT22;43561;50.090;18.522;2023-02-23T00:20:35;1.70;99.90
57719;DHT22;43561;50.090;18.522;2023-02-23T00:30:37;1.60;99.90
57719;DHT22;43561;50.090;18.522;2023-02-23T00:40:39;1.50;99.90
57719;DHT22;43561;50.090;18.522;2023-02-23T00:50:41;1.40;99.90
57719;DHT22;43561;50.090;18.522;2023-02-23T01:00:44;1.20;99.90
57719;DHT22;43561;50.090;18.522;2023-02-23T01:10:46;1.10;99.90
57719;DHT22;43561;50.090;18.522;2023-02-23T01:20:48;1.00;99.90
57719;DHT22;43561;50.090;18.522;2023-02-23T01:30:50;0.90;99.90
57719;DHT22;43561;50.090;18.522;2023-02-23T01:40:52;0.80;99.90
57719;DHT22;43561;50.090;18.522;2023-02-23T01:51:10;0.70;99.90
57719;DHT22;43561;50.090;18.522;2023-02-23T02:01:13;0.60;99.90
57719;DHT22;43561;50.090;18.522;2023-02-23T02:11:17;0.60;99.90
57719;DHT22;43561;50.090;18.522;2023-02-23T02:52:54;0.30;99.90
57719;DHT22;43561;50.090;18.522;2023-02-23T03:02:57;0.20;99.90
57719;DHT22;43561;50.090;18.522;2023-02-23T03:13:17;0.20;99.90
57719;DHT22;43561;50.090;18.522;2023-02-23T03:23:31;0.10;99.90
57719;DHT22;43561;50.090;18.522;2023-02-23T03:44:26;-0.10;99.90
57719;DHT22;43561;50.090;18.522;2023-02-23T03:54:34;-0.10;99.90
57719;DHT22;43561;50.090;18.522;2023-02-23T04:04:38;-0.20;99.90
57719;DHT22;43561;50.090;18.522;2023-02-23T04:15:00;-0.20;99.90
57719;DHT22;43561;50.090;18.522;2023-02-23T04:25:05;-0.30;99.90
57719;DHT22;43561;50.090;18.522;2023-02-23T04:35:08;-0.40;99.90
57719;DHT22;43561;50.090;18.522;2023-02-23T04:45:10;-0.40;99.90
57719;DHT22;43561;50.090;18.522;2023-02-23T04:55:21;-0.50;99.90
57719;DHT22;43561;50.090;18.522;2023-02-23T05:05:23;-0.40;99.90
57719;DHT22;43561;50.090;18.522;2023-02-23T05:15:25;-0.50;99.90
57719;DHT22;43561;50.090;18.522;2023-02-23T05:25:27;-0.50;99.90
57719;DHT22;43561;50.090;18.522;2023-02-23T05:35:29;-0.60;99.90
57719;DHT22;43561;50.090;18.522;2023-02-23T05:45:31;-0.60;99.90
57719;DHT22;43561;50.090;18.522;2023-02-23T05:55:34;-0.70;99.90
57719;DHT22;43561;50.090;18.522;2023-02-23T06:05:36;-0.60;99.90
57719;DHT22;43561;50.090;18.522;2023-02-23T06:15:39;-0.50;99.90
57719;DHT22;43561;50.090;18.522;2023-02-23T06:25:42;-0.40;99.90
57719;DHT22;43561;50.090;18.522;2023-02-23T06:35:44;-0.30;99.90
57719;DHT22;43561;50.090;18.522;2023-02-23T06:45:46;-0.30;99.90
57719;DHT22;43561;50.090;18.522;2023-02-23T06:55:48;-0.10;99.90
57719;DHT22;43561;50.090;18.522;2023-02-23T07:05:50;0.00;99.90
57719;DHT22;43561;50.090;18.522;2023-02-23T07:15:56;0.30;99.90
57719;DHT22;43561;50.090;18.522;2023-02-23T07:25:58;0.40;99.90
57719;DHT22;43561;50.090;18.522;2023-02-23T07:36:00;0.50;99.90
57719;DHT22;43561;50.090;18.522;2023-02-23T07:46:03;0.80;99.90
57719;DHT22;43561;50.090;18.522;2023-02-23T07:56:05;1.20;99.90
57719;DHT22;43561;50.090;18.522;2023-02-23T08:06:08;1.50;99.90
57719;DHT22;43561;50.090;18.522;2023-02-23T08:16:10;2.00;99.90
57719;DHT22;43561;50.090;18.522;2023-02-23T08:26:12;2.50;99.90
57719;DHT22;43561;50.090;18.522;2023-02-23T08:36:16;3.20;99.90
57719;DHT22;43561;50.090;18.522;2023-02-23T08:46:18;3.40;99.90
57719;DHT22;43561;50.090;18.522;2023-02-23T08:56:20;3.40;99.90
57719;DHT22;43561;50.090;18.522;2023-02-23T09:06:23;4.00;99.90
57719;DHT22;43561;50.090;18.522;2023-02-23T09:16:25;4.40;99.90
57719;DHT22;43561;50.090;18.522;2023-02-23T09:26:27;4.50;99.90
57719;DHT22;43561;50.090;18.522;2023-02-23T09:36:30;5.00;99.90
57719;DHT22;43561;50.090;18.522;2023-02-23T09:46:50;5.40;99.90
57719;DHT22;43561;50.090;18.522;2023-02-23T09:56:53;5.30;99.90
57719;DHT22;43561;50.090;18.522;2023-02-23T10:07:04;5.60;99.90
57719;DHT22;43561;50.090;18.522;2023-02-23T10:27:48;5.80;99.90
57719;DHT22;43561;50.090;18.522;2023-02-23T10:37:51;6.00;99.90
57719;DHT22;43561;50.090;18.522;2023-02-23T10:48:07;6.40;99.90
57719;DHT22;43561;50.090;18.522;2023-02-23T10:58:17;6.60;99.90
57719;DHT22;43561;50.090;18.522;2023-02-23T11:08:37;7.10;99.90
57719;DHT22;43561;50.090;18.522;2023-02-23T11:28:54;7.50;99.90
57719;DHT22;43561;50.090;18.522;2023-02-23T11:39:05;7.60;99.90
57719;DHT22;43561;50.090;18.522;2023-02-23T11:49:16;7.70;99.90
57719;DHT22;43561;50.090;18.522;2023-02-23T11:59:29;7.90;99.90
57719;DHT22;43561;50.090;18.522;2023-02-23T12:09:33;7.90;99.90
57719;DHT22;43561;50.090;18.522;2023-02-23T12:19:39;8.30;99.90
57719;DHT22;43561;50.090;18.522;2023-02-23T12:30:14;8.60;99.90
57719;DHT22;43561;50.090;18.522;2023-02-23T12:40:25;8.80;99.90
57719;DHT22;43561;50.090;18.522;2023-02-23T13:00:44;9.10;99.90
57719;DHT22;43561;50.090;18.522;2023-02-23T13:31:35;9.30;99.90
57719;DHT22;43561;50.090;18.522;2023-02-23T13:52:37;9.60;99.90
57719;DHT22;43561;50.090;18.522;2023-02-23T14:14:00;9.80;99.90
57719;DHT22;43561;50.090;18.522;2023-02-23T14:34:21;9.80;99.90
57719;DHT22;43561;50.090;18.522;2023-02-23T14:44:35;9.70;99.90
57719;DHT22;43561;50.090;18.522;2023-02-23T14:54:39;9.80;99.90
57719;DHT22;43561;50.090;18.522;2023-02-23T15:04:41;10.00;99.90
57719;DHT22;43561;50.090;18.522;2023-02-23T15:14:49;9.80;99.90
57719;DHT22;43561;50.090;18.522;2023-02-23T15:24:51;9.70;99.90
57719;DHT22;43561;50.090;18.522;2023-02-23T15:34:53;9.50;99.90
57719;DHT22;43561;50.090;18.522;2023-02-23T15:44:58;9.40;99.90
57719;DHT22;43561;50.090;18.522;2023-02-23T15:55:07;9.20;99.90
57719;DHT22;43561;50.090;18.522;2023-02-23T16:05:21;9.00;99.90
57719;DHT22;43561;50.090;18.522;2023-02-23T16:15:25;8.80;99.90
57719;DHT22;43561;50.090;18.522;2023-02-23T16:25:29;8.60;99.90
57719;DHT22;43561;50.090;18.522;2023-02-23T16:35:43;8.40;99.90
57719;DHT22;43561;50.090;18.522;2023-02-23T16:45:45;8.20;99.90
57719;DHT22;43561;50.090;18.522;2023-02-23T16:55:54;8.00;99.90
57719;DHT22;43561;50.090;18.522;2023-02-23T17:05:57;7.80;99.90
57719;DHT22;43561;50.090;18.522;2023-02-23T17:16:00;7.90;99.90
57719;DHT22;43561;50.090;18.522;2023-02-23T17:26:10;7.90;99.90
57719;DHT22;43561;50.090;18.522;2023-02-23T17:36:15;7.80;99.90
57719;DHT22;43561;50.090;18.522;2023-02-23T17:46:17;7.90;99.90
57719;DHT22;43561;50.090;18.522;2023-02-23T17:56:20;7.80;99.90
57719;DHT22;43561;50.090;18.522;2023-02-23T18:06:22;7.80;99.90
57719;DHT22;43561;50.090;18.522;2023-02-23T18:16:27;7.80;99.90
57719;DHT22;43561;50.090;18.522;2023-02-23T18:26:29;7.80;99.90
57719;DHT22;43561;50.090;18.522;2023-02-23T18:36:33;7.90;99.90
57719;DHT22;43561;50.090;18.522;2023-02-23T18:46:36;7.90;99.90
57719;DHT22;43561;50.090;18.522;2023-02-23T18:56:39;8.10;99.90
57719;DHT22;43561;50.090;18.522;2023-02-23T19:06:43;8.30;99.90
57719;DHT22;43561;50.090;18.522;2023-02-23T19:16:45;8.40;99.90
57719;DHT22;43561;50.090;18.522;2023-02-23T19:26:47;8.50;99.90
57719;DHT22;43561;50.090;18.522;2023-02-23T19:36:49;8.60;99.90
57719;DHT22;43561;50.090;18.522;2023-02-23T19:46:51;8.60;99.90
57719;DHT22;43561;50.090;18.522;2023-02-23T19:56:53;8.60;99.90
57719;DHT22;43561;50.090;18.522;2023-02-23T20:06:57;8.60;99.90
57719;DHT22;43561;50.090;18.522;2023-02-23T20:17:00;8.60;99.90
57719;DHT22;43561;50.090;18.522;2023-02-23T20:27:02;8.60;99.90
57719;DHT22;43561;50.090;18.522;2023-02-23T20:37:04;8.60;99.90
57719;DHT22;43561;50.090;18.522;2023-02-23T20:47:06;8.50;99.90
57719;DHT22;43561;50.090;18.522;2023-02-23T20:57:08;8.50;99.90
57719;DHT22;43561;50.090;18.522;2023-02-23T21:07:10;8.50;99.90
57719;DHT22;43561;50.090;18.522;2023-02-23T21:17:12;8.30;99.90
57719;DHT22;43561;50.090;18.522;2023-02-23T21:27:14;8.20;99.90
57719;DHT22;43561;50.090;18.522;2023-02-23T21:37:17;8.20;99.90
57719;DHT22;43561;50.090;18.522;2023-02-23T21:47:19;8.00;99.90
57719;DHT22;43561;50.090;18.522;2023-02-23T21:57:21;8.00;99.90
57719;DHT22;43561;50.090;18.522;2023-02-23T22:07:23;7.90;99.90
57719;DHT22;43561;50.090;18.522;2023-02-23T22:17:25;7.80;99.90
57719;DHT22;43561;50.090;18.522;2023-02-23T22:27:29;7.70;99.90
57719;DHT22;43561;50.090;18.522;2023-02-23T22:37:31;7.70;99.90
57719;DHT22;43561;50.090;18.522;2023-02-23T22:47:33;7.60;99.90
57719;DHT22;43561;50.090;18.522;2023-02-23T22:57:35;7.50;99.90
57719;DHT22;43561;50.090;18.522;2023-02-23T23:07:37;7.40;99.90
57719;DHT22;43561;50.090;18.522;2023-02-23T23:17:40;7.30;99.90
57719;DHT22;43561;50.090;18.522;2023-02-23T23:27:42;7.20;99.90
57719;DHT22;43561;50.090;18.522;2023-02-23T23:37:44;7.10;99.90
57719;DHT22;43561;50.090;18.522;2023-02-23T23:47:46;7.00;99.90
57719;DHT22;43561;50.090;18.522;2023-02-23T23:57:49;7.00;99.90
